sensor_id;sensor_type;location;lat;lon;timestamp;pressure;altitude;pressure_sealevel;temperature;humidity
70240;BME280;57629;52.256;10.414;2022-12-07T00:00:41;100609.34;;;17.16;39.27
70240;BME280;57629;52.256;10.414;2022-12-07T00:01:43;100611.44;;;17.14;39.00
70240;BME280;57629;52.256;10.414;2022-12-07T00:02:45;100611.19;;;17.16;38.87
70240;BME280;57629;52.256;10.414;2022-12-07T00:03:47;100606.13;;;17.14;38.83
70240;BME280;57629;52.256;10.414;2022-12-07T00:04:48;100604.28;;;17.15;38.98
70240;BME280;57629;52.256;10.414;2022-12-07T00:05:49;100602.63;;;17.14;38.98
70240;BME280;57629;52.256;10.414;2022-12-07T00:06:51;100604.50;;;17.13;39.04
70240;BME280;57629;52.256;10.414;2022-12-07T00:07:52;100601.63;;;17.15;39.01
70240;BME280;57629;52.256;10.414;2022-12-07T00:08:54;100596.53;;;17.13;38.98
70240;BME280;57629;52.256;10.414;2022-12-07T00:09:55;100601.03;;;17.13;39.05
70240;BME280;57629;52.256;10.414;2022-12-07T00:11:01;100599.19;;;17.13;38.92
70240;BME280;57629;52.256;10.414;2022-12-07T00:12:01;100596.31;;;17.15;39.08
70240;BME280;57629;52.256;10.414;2022-12-07T00:13:02;100599.97;;;17.14;39.02
70240;BME280;57629;52.256;10.414;2022-12-07T00:14:06;100599.19;;;17.13;38.88
70240;BME280;57629;52.256;10.414;2022-12-07T00:15:08;100601.84;;;17.13;39.02
70240;BME280;57629;52.256;10.414;2022-12-07T00:16:10;100594.13;;;17.12;39.19
70240;BME280;57629;52.256;10.414;2022-12-07T00:17:11;100593.06;;;17.13;39.04
70240;BME280;57629;52.256;10.414;2022-12-07T00:18:13;100592.28;;;17.12;38.98
70240;BME280;57629;52.256;10.414;2022-12-07T00:19:14;100587.97;;;17.11;38.96
70240;BME280;57629;52.256;10.414;2022-12-07T00:20:14;100594.13;;;17.12;39.04
70240;BME280;57629;52.256;10.414;2022-12-07T00:21:17;100590.41;;;17.13;39.12
70240;BME280;57629;52.256;10.414;2022-12-07T00:22:18;100594.13;;;17.12;39.12
70240;BME280;57629;52.256;10.414;2022-12-07T00:23:18;100592.28;;;17.12;39.06
70240;BME280;57629;52.256;10.414;2022-12-07T00:24:19;100588.81;;;17.12;38.95
70240;BME280;57629;52.256;10.414;2022-12-07T00:25:20;100589.63;;;17.12;39.03
70240;BME280;57629;52.256;10.414;2022-12-07T00:26:22;100588.81;;;17.12;38.99
70240;BME280;57629;52.256;10.414;2022-12-07T00:27:23;100587.97;;;17.11;38.99
70240;BME280;57629;52.256;10.414;2022-12-07T00:28:23;100585.31;;;17.11;38.98
70240;BME280;57629;52.256;10.414;2022-12-07T00:29:24;100591.47;;;17.12;38.79
70240;BME280;57629;52.256;10.414;2022-12-07T00:30:25;100589.81;;;17.11;39.06
70240;BME280;57629;52.256;10.414;2022-12-07T00:31:27;100585.56;;;17.10;38.93
70240;BME280;57629;52.256;10.414;2022-12-07T00:32:28;100589.03;;;17.10;39.07
70240;BME280;57629;52.256;10.414;2022-12-07T00:33:30;100595.13;;;17.11;38.97
70240;BME280;57629;52.256;10.414;2022-12-07T00:34:31;100600.44;;;17.11;38.91
70240;BME280;57629;52.256;10.414;2022-12-07T00:35:31;100595.13;;;17.11;39.05
70240;BME280;57629;52.256;10.414;2022-12-07T00:36:32;100588.22;;;17.10;39.08
70240;BME280;57629;52.256;10.414;2022-12-07T00:37:32;100597.00;;;17.10;39.06
70240;BME280;57629;52.256;10.414;2022-12-07T00:38:35;100590.88;;;17.10;39.04
70240;BME280;57629;52.256;10.414;2022-12-07T00:39:36;100582.91;;;17.10;39.03
70240;BME280;57629;52.256;10.414;2022-12-07T00:40:37;100584.75;;;17.09;38.91
70240;BME280;57629;52.256;10.414;2022-12-07T00:41:37;100580.25;;;17.10;39.03
70240;BME280;57629;52.256;10.414;2022-12-07T00:42:38;100579.47;;;17.09;39.03
70240;BME280;57629;52.256;10.414;2022-12-07T00:43:39;100569.88;;;17.08;38.91
70240;BME280;57629;52.256;10.414;2022-12-07T00:44:40;100575.97;;;17.09;39.36
70240;BME280;57629;52.256;10.414;2022-12-07T00:45:41;100567.22;;;17.08;39.02
70240;BME280;57629;52.256;10.414;2022-12-07T00:46:41;100568.00;;;17.09;39.02
70240;BME280;57629;52.256;10.414;2022-12-07T00:47:42;100566.41;;;17.08;38.95
70240;BME280;57629;52.256;10.414;2022-12-07T00:48:44;100565.34;;;17.09;39.18
70240;BME280;57629;52.256;10.414;2022-12-07T00:49:45;100567.22;;;17.08;39.02
70240;BME280;57629;52.256;10.414;2022-12-07T00:50:45;100564.56;;;17.08;38.89
70240;BME280;57629;52.256;10.414;2022-12-07T00:51:48;100570.66;;;17.09;39.00
70240;BME280;57629;52.256;10.414;2022-12-07T00:52:48;100559.25;;;17.08;39.00
70240;BME280;57629;52.256;10.414;2022-12-07T00:53:49;100565.34;;;17.09;39.25
70240;BME280;57629;52.256;10.414;2022-12-07T00:54:50;100561.91;;;17.08;39.04
70240;BME280;57629;52.256;10.414;2022-12-07T00:55:51;100561.91;;;17.08;38.88
70240;BME280;57629;52.256;10.414;2022-12-07T00:56:51;100560.06;;;17.09;38.83
70240;BME280;57629;52.256;10.414;2022-12-07T00:57:52;100555.78;;;17.08;39.10
70240;BME280;57629;52.256;10.414;2022-12-07T00:58:53;100558.44;;;17.08;39.04
70240;BME280;57629;52.256;10.414;2022-12-07T00:59:54;100562.72;;;17.09;38.78
70240;BME280;57629;52.256;10.414;2022-12-07T01:00:59;100554.16;;;17.07;38.91
70240;BME280;57629;52.256;10.414;2022-12-07T01:02:00;100555.78;;;17.08;39.02
70240;BME280;57629;52.256;10.414;2022-12-07T01:03:00;100559.47;;;17.07;39.02
70240;BME280;57629;52.256;10.414;2022-12-07T01:04:03;100556.81;;;17.07;38.93
70240;BME280;57629;52.256;10.414;2022-12-07T01:05:04;100553.34;;;17.06;39.10
70240;BME280;57629;52.256;10.414;2022-12-07T01:06:06;100554.41;;;17.05;39.03
70240;BME280;57629;52.256;10.414;2022-12-07T01:07:06;100560.50;;;17.06;39.13
70240;BME280;57629;52.256;10.414;2022-12-07T01:08:08;100549.91;;;17.06;38.98
70240;BME280;57629;52.256;10.414;2022-12-07T01:09:08;100546.44;;;17.05;39.10
70240;BME280;57629;52.256;10.414;2022-12-07T01:10:10;100551.50;;;17.07;39.15
70240;BME280;57629;52.256;10.414;2022-12-07T01:11:14;100555.00;;;17.07;39.01
70240;BME280;57629;52.256;10.414;2022-12-07T01:12:14;100558.44;;;17.08;38.93
70240;BME280;57629;52.256;10.414;2022-12-07T01:13:15;100550.69;;;17.06;39.06
70240;BME280;57629;52.256;10.414;2022-12-07T01:14:16;100548.84;;;17.07;39.18
70240;BME280;57629;52.256;10.414;2022-12-07T01:15:17;100551.50;;;17.07;39.10
70240;BME280;57629;52.256;10.414;2022-12-07T01:16:19;100556.81;;;17.07;38.86
70240;BME280;57629;52.256;10.414;2022-12-07T01:17:19;100548.03;;;17.06;39.11
70240;BME280;57629;52.256;10.414;2022-12-07T01:18:20;100547.25;;;17.06;39.06
70240;BME280;57629;52.256;10.414;2022-12-07T01:19:22;100546.44;;;17.05;38.96
70240;BME280;57629;52.256;10.414;2022-12-07T01:20:23;100541.94;;;17.06;39.19
70240;BME280;57629;52.256;10.414;2022-12-07T01:21:25;100545.41;;;17.06;39.09
70240;BME280;57629;52.256;10.414;2022-12-07T01:22:26;100549.91;;;17.06;39.09
70240;BME280;57629;52.256;10.414;2022-12-07T01:23:27;100536.63;;;17.06;39.09
70240;BME280;57629;52.256;10.414;2022-12-07T01:24:28;100539.50;;;17.04;39.02
70240;BME280;57629;52.256;10.414;2022-12-07T01:25:29;100542.97;;;17.05;38.95
70240;BME280;57629;52.256;10.414;2022-12-07T01:26:29;100536.63;;;17.06;39.09
70240;BME280;57629;52.256;10.414;2022-12-07T01:27:30;100545.41;;;17.06;39.15
70240;BME280;57629;52.256;10.414;2022-12-07T01:28:31;100546.44;;;17.05;39.12
70240;BME280;57629;52.256;10.414;2022-12-07T01:29:32;100541.94;;;17.06;38.96
70240;BME280;57629;52.256;10.414;2022-12-07T01:30:32;100538.47;;;17.05;39.00
70240;BME280;57629;52.256;10.414;2022-12-07T01:31:33;100536.03;;;17.04;39.15
70240;BME280;57629;52.256;10.414;2022-12-07T01:32:34;100541.34;;;17.04;39.17
70240;BME280;57629;52.256;10.414;2022-12-07T01:33:36;100539.28;;;17.06;39.10
70240;BME280;57629;52.256;10.414;2022-12-07T01:34:38;100535.81;;;17.05;39.09
70240;BME280;57629;52.256;10.414;2022-12-07T01:35:39;100532.38;;;17.05;39.14
70240;BME280;57629;52.256;10.414;2022-12-07T01:36:39;100535.81;;;17.05;38.72
70240;BME280;57629;52.256;10.414;2022-12-07T01:37:40;100527.06;;;17.05;39.12
70240;BME280;57629;52.256;10.414;2022-12-07T01:38:41;100528.09;;;17.04;39.11
70240;BME280;57629;52.256;10.414;2022-12-07T01:39:41;100522.78;;;17.04;39.05
70240;BME280;57629;52.256;10.414;2022-12-07T01:40:42;100519.31;;;17.03;39.18
70240;BME280;57629;52.256;10.414;2022-12-07T01:41:43;100526.22;;;17.04;39.11
70240;BME280;57629;52.256;10.414;2022-12-07T01:42:43;100521.97;;;17.03;39.12
70240;BME280;57629;52.256;10.414;2022-12-07T01:44:09;100520.94;;;17.04;39.14
70240;BME280;57629;52.256;10.414;2022-12-07T01:45:34;100528.09;;;17.04;39.13
70240;BME280;57629;52.256;10.414;2022-12-07T01:46:36;100522.78;;;17.04;38.96
70240;BME280;57629;52.256;10.414;2022-12-07T01:47:37;100523.59;;;17.04;39.12
70240;BME280;57629;52.256;10.414;2022-12-07T01:48:40;100519.31;;;17.03;39.11
70240;BME280;57629;52.256;10.414;2022-12-07T01:49:45;100519.09;;;17.05;39.07
70240;BME280;57629;52.256;10.414;2022-12-07T01:50:48;100513.22;;;17.03;39.18
70240;BME280;57629;52.256;10.414;2022-12-07T01:51:55;100521.97;;;17.03;38.89
70240;BME280;57629;52.256;10.414;2022-12-07T01:52:59;100518.53;;;17.03;39.08
70240;BME280;57629;52.256;10.414;2022-12-07T01:54:02;100514.22;;;17.01;39.14
70240;BME280;57629;52.256;10.414;2022-12-07T01:55:05;100520.38;;;17.02;39.00
70240;BME280;57629;52.256;10.414;2022-12-07T01:56:08;100527.28;;;17.03;38.99
70240;BME280;57629;52.256;10.414;2022-12-07T01:57:11;100521.97;;;17.03;39.07
70240;BME280;57629;52.256;10.414;2022-12-07T01:58:15;100520.13;;;17.04;39.11
70240;BME280;57629;52.256;10.414;2022-12-07T01:59:18;100528.09;;;17.04;39.12
70240;BME280;57629;52.256;10.414;2022-12-07T02:00:20;100523.81;;;17.03;39.08
70240;BME280;57629;52.256;10.414;2022-12-07T02:01:21;100517.72;;;17.02;39.10
70240;BME280;57629;52.256;10.414;2022-12-07T02:02:25;100515.06;;;17.02;39.11
70240;BME280;57629;52.256;10.414;2022-12-07T02:03:31;100523.81;;;17.03;39.09
70240;BME280;57629;52.256;10.414;2022-12-07T02:04:32;100517.72;;;17.02;39.14
70240;BME280;57629;52.256;10.414;2022-12-07T02:05:37;100515.06;;;17.02;39.20
70240;BME280;57629;52.256;10.414;2022-12-07T02:06:38;100518.72;;;17.01;39.28
70240;BME280;57629;52.256;10.414;2022-12-07T02:07:39;100516.09;;;17.01;39.09
70240;BME280;57629;52.256;10.414;2022-12-07T02:08:41;100511.56;;;17.01;39.23
70240;BME280;57629;52.256;10.414;2022-12-07T02:09:42;100512.41;;;17.02;39.14
70240;BME280;57629;52.256;10.414;2022-12-07T02:10:43;100510.78;;;17.01;39.06
70240;BME280;57629;52.256;10.414;2022-12-07T02:11:43;100512.63;;;17.00;39.20
70240;BME280;57629;52.256;10.414;2022-12-07T02:12:46;100508.94;;;17.01;39.18
70240;BME280;57629;52.256;10.414;2022-12-07T02:13:48;100502.81;;;17.01;39.17
70240;BME280;57629;52.256;10.414;2022-12-07T02:14:50;100508.13;;;17.01;39.22
70240;BME280;57629;52.256;10.414;2022-12-07T02:16:17;100503.63;;;17.01;39.12
70240;BME280;57629;52.256;10.414;2022-12-07T02:17:25;100500.16;;;17.01;39.08
70240;BME280;57629;52.256;10.414;2022-12-07T02:18:37;100510.78;;;17.01;39.22
70240;BME280;57629;52.256;10.414;2022-12-07T02:20:02;100509.97;;;17.00;39.14
70240;BME280;57629;52.256;10.414;2022-12-07T02:21:08;100507.31;;;17.00;39.12
70240;BME280;57629;52.256;10.414;2022-12-07T02:22:23;100507.31;;;17.00;39.24
70240;BME280;57629;52.256;10.414;2022-12-07T02:23:41;100511.03;;;16.99;39.23
70240;BME280;57629;52.256;10.414;2022-12-07T02:24:52;100494.84;;;17.01;39.24
70240;BME280;57629;52.256;10.414;2022-12-07T02:27:36;100497.50;;;17.01;39.12
70240;BME280;57629;52.256;10.414;2022-12-07T02:28:53;100490.59;;;17.00;39.22
70240;BME280;57629;52.256;10.414;2022-12-07T02:30:03;100486.09;;;17.00;39.07
70240;BME280;57629;52.256;10.414;2022-12-07T02:31:08;100503.06;;;16.99;39.23
70240;BME280;57629;52.256;10.414;2022-12-07T02:32:15;100499.56;;;16.99;39.11
70240;BME280;57629;52.256;10.414;2022-12-07T02:33:21;100499.56;;;16.99;39.31
70240;BME280;57629;52.256;10.414;2022-12-07T02:34:34;100497.75;;;16.99;39.11
70240;BME280;57629;52.256;10.414;2022-12-07T02:35:40;100496.91;;;16.99;39.08
70240;BME280;57629;52.256;10.414;2022-12-07T02:36:44;100487.34;;;16.98;39.28
70240;BME280;57629;52.256;10.414;2022-12-07T02:37:53;100488.97;;;16.99;39.11
70240;BME280;57629;52.256;10.414;2022-12-07T02:39:01;100487.34;;;16.98;39.21
70240;BME280;57629;52.256;10.414;2022-12-07T02:40:09;100496.13;;;16.98;39.28
70240;BME280;57629;52.256;10.414;2022-12-07T02:41:13;100490.81;;;16.98;39.31
70240;BME280;57629;52.256;10.414;2022-12-07T02:42:23;100477.53;;;16.98;39.27
70240;BME280;57629;52.256;10.414;2022-12-07T02:43:27;100476.75;;;16.98;39.22
70240;BME280;57629;52.256;10.414;2022-12-07T02:44:31;100473.28;;;16.97;39.13
70240;BME280;57629;52.256;10.414;2022-12-07T02:45:34;100474.91;;;16.98;39.34
70240;BME280;57629;52.256;10.414;2022-12-07T02:46:38;100473.28;;;16.97;39.29
70240;BME280;57629;52.256;10.414;2022-12-07T02:47:41;100470.63;;;16.97;39.24
70240;BME280;57629;52.256;10.414;2022-12-07T02:48:43;100472.50;;;16.97;39.28
70240;BME280;57629;52.256;10.414;2022-12-07T02:49:46;100473.28;;;16.97;39.35
70240;BME280;57629;52.256;10.414;2022-12-07T02:50:48;100475.94;;;16.97;39.34
70240;BME280;57629;52.256;10.414;2022-12-07T02:51:50;100474.31;;;16.96;39.21
70240;BME280;57629;52.256;10.414;2022-12-07T02:52:52;100469.84;;;16.97;39.17
70240;BME280;57629;52.256;10.414;2022-12-07T02:53:53;100475.13;;;16.97;39.25
70240;BME280;57629;52.256;10.414;2022-12-07T02:54:53;100473.28;;;16.97;39.23
70240;BME280;57629;52.256;10.414;2022-12-07T02:55:54;100480.44;;;16.97;39.28
70240;BME280;57629;52.256;10.414;2022-12-07T02:57:02;100467.19;;;16.97;39.40
70240;BME280;57629;52.256;10.414;2022-12-07T02:58:20;100473.28;;;16.97;39.31
70240;BME280;57629;52.256;10.414;2022-12-07T02:59:32;100477.78;;;16.97;39.32
70240;BME280;57629;52.256;10.414;2022-12-07T03:00:44;100467.97;;;16.97;39.38
70240;BME280;57629;52.256;10.414;2022-12-07T03:01:56;100475.13;;;16.97;39.37
70240;BME280;57629;52.256;10.414;2022-12-07T03:03:08;100469.59;;;16.98;39.26
70240;BME280;57629;52.256;10.414;2022-12-07T03:04:19;100467.19;;;16.97;39.31
70240;BME280;57629;52.256;10.414;2022-12-07T03:05:41;100469.84;;;16.97;39.13
70240;BME280;57629;52.256;10.414;2022-12-07T03:06:50;100465.56;;;16.96;39.37
70240;BME280;57629;52.256;10.414;2022-12-07T03:07:59;100467.19;;;16.97;39.46
70240;BME280;57629;52.256;10.414;2022-12-07T03:09:11;100465.34;;;16.97;39.29
70240;BME280;57629;52.256;10.414;2022-12-07T03:10:20;100466.59;;;16.95;39.35
70240;BME280;57629;52.256;10.414;2022-12-07T03:11:26;100467.41;;;16.95;39.51
70240;BME280;57629;52.256;10.414;2022-12-07T03:12:33;100461.03;;;16.96;39.31
70240;BME280;57629;52.256;10.414;2022-12-07T03:13:40;100464.53;;;16.97;39.40
70240;BME280;57629;52.256;10.414;2022-12-07T03:14:47;100463.69;;;16.96;39.36
70240;BME280;57629;52.256;10.414;2022-12-07T03:15:55;100461.28;;;16.95;39.29
70240;BME280;57629;52.256;10.414;2022-12-07T03:17:02;100459.44;;;16.95;39.39
70240;BME280;57629;52.256;10.414;2022-12-07T03:18:04;100457.00;;;16.94;39.38
70240;BME280;57629;52.256;10.414;2022-12-07T03:19:08;100462.09;;;16.95;39.22
70240;BME280;57629;52.256;10.414;2022-12-07T03:20:12;100462.09;;;16.95;39.31
70240;BME280;57629;52.256;10.414;2022-12-07T03:21:15;100462.09;;;16.95;39.31
70240;BME280;57629;52.256;10.414;2022-12-07T03:22:17;100465.56;;;16.96;39.36
70240;BME280;57629;52.256;10.414;2022-12-07T03:23:21;100465.78;;;16.94;39.25
70240;BME280;57629;52.256;10.414;2022-12-07T03:24:27;100472.91;;;16.94;39.53
70240;BME280;57629;52.256;10.414;2022-12-07T03:25:29;100466.81;;;16.93;39.32
70240;BME280;57629;52.256;10.414;2022-12-07T03:26:32;100468.66;;;16.93;39.34
70240;BME280;57629;52.256;10.414;2022-12-07T03:27:38;100460.69;;;16.93;39.38
70240;BME280;57629;52.256;10.414;2022-12-07T03:28:45;100464.16;;;16.93;39.33
70240;BME280;57629;52.256;10.414;2022-12-07T03:29:53;100458.84;;;16.93;39.45
70240;BME280;57629;52.256;10.414;2022-12-07T03:30:57;100460.50;;;16.94;39.37
70240;BME280;57629;52.256;10.414;2022-12-07T03:32:03;100454.59;;;16.92;39.52
70240;BME280;57629;52.256;10.414;2022-12-07T03:33:08;100460.91;;;16.91;39.56
70240;BME280;57629;52.256;10.414;2022-12-07T03:34:14;100462.56;;;16.92;39.27
70240;BME280;57629;52.256;10.414;2022-12-07T03:35:20;100460.69;;;16.93;39.34
70240;BME280;57629;52.256;10.414;2022-12-07T03:36:26;100457.47;;;16.91;39.53
70240;BME280;57629;52.256;10.414;2022-12-07T03:37:32;100460.13;;;16.91;39.37
70240;BME280;57629;52.256;10.414;2022-12-07T03:38:37;100458.25;;;16.91;39.50
70240;BME280;57629;52.256;10.414;2022-12-07T03:39:41;100458.25;;;16.91;39.34
70240;BME280;57629;52.256;10.414;2022-12-07T03:40:48;100455.63;;;16.91;39.48
70240;BME280;57629;52.256;10.414;2022-12-07T03:41:51;100457.47;;;16.91;39.51
70240;BME280;57629;52.256;10.414;2022-12-07T03:42:53;100455.63;;;16.91;39.47
70240;BME280;57629;52.256;10.414;2022-12-07T03:43:55;100456.66;;;16.90;39.54
70240;BME280;57629;52.256;10.414;2022-12-07T03:44:58;100457.47;;;16.91;39.59
70240;BME280;57629;52.256;10.414;2022-12-07T03:46:06;100450.56;;;16.90;39.44
70240;BME280;57629;52.256;10.414;2022-12-07T03:47:12;100454.81;;;16.91;39.37
70240;BME280;57629;52.256;10.414;2022-12-07T03:48:21;100457.47;;;16.91;39.55
70240;BME280;57629;52.256;10.414;2022-12-07T03:49:25;100448.50;;;16.92;39.49
70240;BME280;57629;52.256;10.414;2022-12-07T03:50:33;100448.72;;;16.90;39.48
70240;BME280;57629;52.256;10.414;2022-12-07T03:51:42;100448.72;;;16.90;39.51
70240;BME280;57629;52.256;10.414;2022-12-07T03:52:49;100449.72;;;16.89;39.52
70240;BME280;57629;52.256;10.414;2022-12-07T03:53:58;100440.97;;;16.89;39.54
70240;BME280;57629;52.256;10.414;2022-12-07T03:55:05;100444.41;;;16.89;39.35
70240;BME280;57629;52.256;10.414;2022-12-07T03:56:08;100449.50;;;16.91;39.40
70240;BME280;57629;52.256;10.414;2022-12-07T03:57:11;100442.34;;;16.91;39.47
70240;BME280;57629;52.256;10.414;2022-12-07T03:58:15;100452.97;;;16.91;39.31
70240;BME280;57629;52.256;10.414;2022-12-07T03:59:17;100452.16;;;16.91;39.43
70240;BME280;57629;52.256;10.414;2022-12-07T04:00:20;100446.84;;;16.91;39.47
70240;BME280;57629;52.256;10.414;2022-12-07T04:01:22;100440.97;;;16.89;39.51
70240;BME280;57629;52.256;10.414;2022-12-07T04:02:25;100451.56;;;16.89;39.32
70240;BME280;57629;52.256;10.414;2022-12-07T04:03:27;100454.00;;;16.90;39.53
70240;BME280;57629;52.256;10.414;2022-12-07T04:04:28;100447.91;;;16.90;39.54
70240;BME280;57629;52.256;10.414;2022-12-07T04:05:28;100454.22;;;16.89;39.49
70240;BME280;57629;52.256;10.414;2022-12-07T04:06:29;100447.06;;;16.89;39.44
70240;BME280;57629;52.256;10.414;2022-12-07T04:07:30;100449.97;;;16.88;39.12
70240;BME280;57629;52.256;10.414;2022-12-07T04:08:31;100456.06;;;16.88;39.41
70240;BME280;57629;52.256;10.414;2022-12-07T04:09:31;100456.88;;;16.89;39.41
70240;BME280;57629;52.256;10.414;2022-12-07T04:10:32;100460.34;;;16.89;39.47
70240;BME280;57629;52.256;10.414;2022-12-07T04:11:33;100456.88;;;16.89;39.41
70240;BME280;57629;52.256;10.414;2022-12-07T04:12:33;100462.19;;;16.89;39.41
70240;BME280;57629;52.256;10.414;2022-12-07T04:13:34;100455.28;;;16.88;39.33
70240;BME280;57629;52.256;10.414;2022-12-07T04:14:35;100453.41;;;16.88;39.29
70240;BME280;57629;52.256;10.414;2022-12-07T04:15:37;100459.53;;;16.89;39.35
70240;BME280;57629;52.256;10.414;2022-12-07T04:16:37;100461.38;;;16.88;39.44
70240;BME280;57629;52.256;10.414;2022-12-07T04:17:38;100452.63;;;16.88;39.44
70240;BME280;57629;52.256;10.414;2022-12-07T04:18:39;100449.97;;;16.88;39.05
70240;BME280;57629;52.256;10.414;2022-12-07T04:19:39;100447.31;;;16.88;39.45
70240;BME280;57629;52.256;10.414;2022-12-07T04:20:40;100451.81;;;16.87;39.34
70240;BME280;57629;52.256;10.414;2022-12-07T04:21:41;100452.38;;;16.89;39.25
70240;BME280;57629;52.256;10.414;2022-12-07T04:22:41;100446.50;;;16.87;39.37
70240;BME280;57629;52.256;10.414;2022-12-07T04:23:42;100452.63;;;16.88;39.44
70240;BME280;57629;52.256;10.414;2022-12-07T04:24:43;100451.81;;;16.87;39.43
70240;BME280;57629;52.256;10.414;2022-12-07T04:25:44;100455.28;;;16.88;39.38
70240;BME280;57629;52.256;10.414;2022-12-07T04:26:45;100451.81;;;16.87;39.52
70240;BME280;57629;52.256;10.414;2022-12-07T04:27:46;100449.16;;;16.87;39.40
70240;BME280;57629;52.256;10.414;2022-12-07T04:28:46;100455.28;;;16.88;39.42
70240;BME280;57629;52.256;10.414;2022-12-07T04:29:47;100451.81;;;16.87;39.51
70240;BME280;57629;52.256;10.414;2022-12-07T04:30:49;100451.81;;;16.87;39.50
70240;BME280;57629;52.256;10.414;2022-12-07T04:31:50;100451.81;;;16.87;39.51
70240;BME280;57629;52.256;10.414;2022-12-07T04:32:51;100453.63;;;16.87;39.40
70240;BME280;57629;52.256;10.414;2022-12-07T04:33:51;100452.84;;;16.86;39.34
70240;BME280;57629;52.256;10.414;2022-12-07T04:34:52;100453.88;;;16.85;39.43
70240;BME280;57629;52.256;10.414;2022-12-07T04:35:53;100447.78;;;16.85;39.36
70240;BME280;57629;52.256;10.414;2022-12-07T04:36:54;100449.38;;;16.86;39.44
70240;BME280;57629;52.256;10.414;2022-12-07T04:37:55;100457.34;;;16.86;39.31
70240;BME280;57629;52.256;10.414;2022-12-07T04:38:55;100450.19;;;16.86;39.29
70240;BME280;57629;52.256;10.414;2022-12-07T04:39:56;100449.38;;;16.86;39.45
70240;BME280;57629;52.256;10.414;2022-12-07T04:40:56;100448.56;;;16.85;39.34
70240;BME280;57629;52.256;10.414;2022-12-07T04:41:58;100456.75;;;16.84;39.53
70240;BME280;57629;52.256;10.414;2022-12-07T04:42:58;100445.94;;;16.85;39.47
70240;BME280;57629;52.256;10.414;2022-12-07T04:44:01;100454.09;;;16.84;39.35
70240;BME280;57629;52.256;10.414;2022-12-07T04:45:01;100452.25;;;16.84;39.28
70240;BME280;57629;52.256;10.414;2022-12-07T04:46:04;100454.91;;;16.84;39.37
70240;BME280;57629;52.256;10.414;2022-12-07T04:47:05;100445.94;;;16.85;39.44
70240;BME280;57629;52.256;10.414;2022-12-07T04:48:05;100445.34;;;16.83;39.53
70240;BME280;57629;52.256;10.414;2022-12-07T04:49:06;100448.00;;;16.83;39.42
70240;BME280;57629;52.256;10.414;2022-12-07T04:50:09;100443.50;;;16.84;39.32
70240;BME280;57629;52.256;10.414;2022-12-07T04:51:09;100441.63;;;16.84;39.42
70240;BME280;57629;52.256;10.414;2022-12-07T04:52:10;100435.53;;;16.84;39.53
70240;BME280;57629;52.256;10.414;2022-12-07T04:53:10;100443.50;;;16.84;39.37
70240;BME280;57629;52.256;10.414;2022-12-07T04:54:11;100441.63;;;16.84;39.45
70240;BME280;57629;52.256;10.414;2022-12-07T04:55:12;100446.94;;;16.84;39.42
70240;BME280;57629;52.256;10.414;2022-12-07T04:56:13;100446.94;;;16.84;39.35
70240;BME280;57629;52.256;10.414;2022-12-07T04:57:14;100439.22;;;16.83;39.55
70240;BME280;57629;52.256;10.414;2022-12-07T04:58:14;100440.03;;;16.83;39.43
70240;BME280;57629;52.256;10.414;2022-12-07T04:59:16;100441.63;;;16.84;39.67
70240;BME280;57629;52.256;10.414;2022-12-07T05:00:17;100446.13;;;16.84;39.30
70240;BME280;57629;52.256;10.414;2022-12-07T05:01:19;100438.19;;;16.84;39.39
70240;BME280;57629;52.256;10.414;2022-12-07T05:02:20;100433.69;;;16.84;39.43
70240;BME280;57629;52.256;10.414;2022-12-07T05:03:21;100443.50;;;16.84;39.40
70240;BME280;57629;52.256;10.414;2022-12-07T05:04:22;100440.84;;;16.84;39.40
70240;BME280;57629;52.256;10.414;2022-12-07T05:05:22;100443.72;;;16.82;39.45
70240;BME280;57629;52.256;10.414;2022-12-07T05:06:23;100442.09;;;16.81;39.41
70240;BME280;57629;52.256;10.414;2022-12-07T05:07:24;100446.38;;;16.82;39.32
70240;BME280;57629;52.256;10.414;2022-12-07T05:08:24;100444.53;;;16.83;39.27
70240;BME280;57629;52.256;10.414;2022-12-07T05:09:25;100443.72;;;16.82;39.39
70240;BME280;57629;52.256;10.414;2022-12-07T05:10:26;100443.72;;;16.82;39.46
70240;BME280;57629;52.256;10.414;2022-12-07T05:11:26;100448.00;;;16.83;39.38
70240;BME280;57629;52.256;10.414;2022-12-07T05:12:27;100441.88;;;16.83;39.24
70240;BME280;57629;52.256;10.414;2022-12-07T05:13:28;100448.00;;;16.83;39.31
70240;BME280;57629;52.256;10.414;2022-12-07T05:14:28;100446.13;;;16.84;39.30
70240;BME280;57629;52.256;10.414;2022-12-07T05:15:29;100447.19;;;16.83;39.31
70240;BME280;57629;52.256;10.414;2022-12-07T05:16:31;100443.72;;;16.82;39.18
70240;BME280;57629;52.256;10.414;2022-12-07T05:17:32;100447.19;;;16.83;39.46
70240;BME280;57629;52.256;10.414;2022-12-07T05:18:32;100447.19;;;16.83;39.38
70240;BME280;57629;52.256;10.414;2022-12-07T05:19:33;100449.03;;;16.82;39.36
70240;BME280;57629;52.256;10.414;2022-12-07T05:20:33;100447.19;;;16.83;39.35
70240;BME280;57629;52.256;10.414;2022-12-07T05:21:34;100449.25;;;16.81;39.36
70240;BME280;57629;52.256;10.414;2022-12-07T05:22:35;100451.69;;;16.82;39.37
70240;BME280;57629;52.256;10.414;2022-12-07T05:23:35;100451.09;;;16.80;39.38
70240;BME280;57629;52.256;10.414;2022-12-07T05:24:36;100449.25;;;16.81;39.52
70240;BME280;57629;52.256;10.414;2022-12-07T05:25:37;100450.31;;;16.79;39.42
70240;BME280;57629;52.256;10.414;2022-12-07T05:26:38;100445.81;;;16.80;39.36
70240;BME280;57629;52.256;10.414;2022-12-07T05:27:38;100452.94;;;16.79;39.40